sensor_id;sensor_type;location;lat;lon;timestamp;temperature;humidity
31747;DHT22;18319;48.974;8.462;2023-07-20T00:01:47;17.70;99.90
31747;DHT22;18319;48.974;8.462;2023-07-20T00:04:14;17.70;99.90
31747;DHT22;18319;48.974;8.462;2023-07-20T00:06:41;17.60;99.90
31747;DHT22;18319;48.974;8.462;2023-07-20T00:09:08;17.50;99.90
31747;DHT22;18319;48.974;8.462;2023-07-20T00:11:37;17.40;99.90
31747;DHT22;18319;48.974;8.462;2023-07-20T00:14:05;17.30;99.90
31747;DHT22;18319;48.974;8.462;2023-07-20T00:16:32;17.30;99.90
31747;DHT22;18319;48.974;8.462;2023-07-20T00:18:59;17.30;99.90
31747;DHT22;18319;48.974;8.462;2023-07-20T00:21:26;17.20;99.90
31747;DHT22;18319;48.974;8.462;2023-07-20T00:23:53;17.10;99.90
31747;DHT22;18319;48.974;8.462;2023-07-20T00:26:19;17.10;99.90
31747;DHT22;18319;48.974;8.462;2023-07-20T00:28:46;17.20;99.90
31747;DHT22;18319;48.974;8.462;2023-07-20T00:31:14;17.10;99.90
31747;DHT22;18319;48.974;8.462;2023-07-20T00:33:41;17.10;99.90
31747;DHT22;18319;48.974;8.462;2023-07-20T00:36:08;17.00;99.90
31747;DHT22;18319;48.974;8.462;2023-07-20T00:38:34;17.10;99.90
31747;DHT22;18319;48.974;8.462;2023-07-20T00:41:01;17.10;99.90
31747;DHT22;18319;48.974;8.462;2023-07-20T00:43:28;17.00;99.90
31747;DHT22;18319;48.974;8.462;2023-07-20T00:45:55;17.00;99.90
31747;DHT22;18319;48.974;8.462;2023-07-20T00:48:23;16.90;99.90
31747;DHT22;18319;48.974;8.462;2023-07-20T00:50:50;16.90;99.90
31747;DHT22;18319;48.974;8.462;2023-07-20T00:53:17;16.90;99.90
31747;DHT22;18319;48.974;8.462;2023-07-20T00:55:44;16.90;99.90
31747;DHT22;18319;48.974;8.462;2023-07-20T00:58:11;16.90;99.90
31747;DHT22;18319;48.974;8.462;2023-07-20T01:00:38;16.90;99.90
31747;DHT22;18319;48.974;8.462;2023-07-20T01:03:05;16.80;99.90
31747;DHT22;18319;48.974;8.462;2023-07-20T01:05:40;16.80;99.90
31747;DHT22;18319;48.974;8.462;2023-07-20T01:08:11;16.80;99.90
31747;DHT22;18319;48.974;8.462;2023-07-20T01:10:45;16.80;99.90
31747;DHT22;18319;48.974;8.462;2023-07-20T01:13:14;16.80;99.90
31747;DHT22;18319;48.974;8.462;2023-07-20T01:15:41;16.70;99.90
31747;DHT22;18319;48.974;8.462;2023-07-20T01:18:08;16.70;99.90
31747;DHT22;18319;48.974;8.462;2023-07-20T01:20:36;16.70;99.90
31747;DHT22;18319;48.974;8.462;2023-07-20T01:23:22;16.70;99.90
31747;DHT22;18319;48.974;8.462;2023-07-20T01:26:12;16.70;99.90
31747;DHT22;18319;48.974;8.462;2023-07-20T01:28:56;16.70;99.90
31747;DHT22;18319;48.974;8.462;2023-07-20T01:31:28;16.80;99.90
31747;DHT22;18319;48.974;8.462;2023-07-20T01:33:57;16.70;99.90
31747;DHT22;18319;48.974;8.462;2023-07-20T01:36:27;16.60;99.90
31747;DHT22;18319;48.974;8.462;2023-07-20T01:38:54;16.60;99.90
31747;DHT22;18319;48.974;8.462;2023-07-20T01:41:23;16.60;99.90
31747;DHT22;18319;48.974;8.462;2023-07-20T01:43:50;16.50;99.90
31747;DHT22;18319;48.974;8.462;2023-07-20T01:46:16;16.50;99.90
31747;DHT22;18319;48.974;8.462;2023-07-20T01:48:45;16.40;99.90
31747;DHT22;18319;48.974;8.462;2023-07-20T01:51:12;16.50;99.90
31747;DHT22;18319;48.974;8.462;2023-07-20T01:53:39;16.50;99.90
31747;DHT22;18319;48.974;8.462;2023-07-20T01:56:06;16.50;99.90
31747;DHT22;18319;48.974;8.462;2023-07-20T01:58:33;16.40;99.90
31747;DHT22;18319;48.974;8.462;2023-07-20T02:01:00;16.40;99.90
31747;DHT22;18319;48.974;8.462;2023-07-20T02:03:27;16.40;99.90
31747;DHT22;18319;48.974;8.462;2023-07-20T02:05:55;16.40;99.90
31747;DHT22;18319;48.974;8.462;2023-07-20T02:08:23;16.40;99.90
31747;DHT22;18319;48.974;8.462;2023-07-20T02:10:50;16.50;99.90
31747;DHT22;18319;48.974;8.462;2023-07-20T02:13:17;16.40;99.90
31747;DHT22;18319;48.974;8.462;2023-07-20T02:15:44;16.30;99.90
31747;DHT22;18319;48.974;8.462;2023-07-20T02:18:12;16.30;99.90
31747;DHT22;18319;48.974;8.462;2023-07-20T02:20:40;16.40;99.90
31747;DHT22;18319;48.974;8.462;2023-07-20T02:23:09;16.40;99.90
31747;DHT22;18319;48.974;8.462;2023-07-20T02:25:36;16.30;99.90
31747;DHT22;18319;48.974;8.462;2023-07-20T02:28:04;16.30;99.90
31747;DHT22;18319;48.974;8.462;2023-07-20T02:30:30;16.30;99.90
31747;DHT22;18319;48.974;8.462;2023-07-20T02:32:57;16.30;99.90
31747;DHT22;18319;48.974;8.462;2023-07-20T02:35:24;16.20;99.90
31747;DHT22;18319;48.974;8.462;2023-07-20T02:37:51;16.20;99.90
31747;DHT22;18319;48.974;8.462;2023-07-20T02:40:20;16.20;99.90
31747;DHT22;18319;48.974;8.462;2023-07-20T02:42:47;16.20;99.90
31747;DHT22;18319;48.974;8.462;2023-07-20T02:45:13;16.20;99.90
31747;DHT22;18319;48.974;8.462;2023-07-20T02:47:40;16.20;99.90
31747;DHT22;18319;48.974;8.462;2023-07-20T02:50:08;16.20;99.90
31747;DHT22;18319;48.974;8.462;2023-07-20T02:52:35;16.10;99.90
31747;DHT22;18319;48.974;8.462;2023-07-20T02:55:02;16.20;99.90
31747;DHT22;18319;48.974;8.462;2023-07-20T02:57:30;16.10;99.90
31747;DHT22;18319;48.974;8.462;2023-07-20T02:59:57;16.10;99.90
31747;DHT22;18319;48.974;8.462;2023-07-20T03:02:23;16.10;99.90
31747;DHT22;18319;48.974;8.462;2023-07-20T03:04:50;16.10;99.90
31747;DHT22;18319;48.974;8.462;2023-07-20T03:07:17;16.10;99.90
31747;DHT22;18319;48.974;8.462;2023-07-20T03:09:44;16.00;99.90
31747;DHT22;18319;48.974;8.462;2023-07-20T03:12:11;16.00;99.90
31747;DHT22;18319;48.974;8.462;2023-07-20T03:14:39;16.00;99.90
31747;DHT22;18319;48.974;8.462;2023-07-20T03:17:05;15.90;99.90
31747;DHT22;18319;48.974;8.462;2023-07-20T03:19:34;15.90;99.90
31747;DHT22;18319;48.974;8.462;2023-07-20T03:22:00;15.90;99.90
31747;DHT22;18319;48.974;8.462;2023-07-20T03:24:27;15.90;99.90
31747;DHT22;18319;48.974;8.462;2023-07-20T03:26:54;16.00;99.90
31747;DHT22;18319;48.974;8.462;2023-07-20T03:29:21;15.90;99.90
31747;DHT22;18319;48.974;8.462;2023-07-20T03:31:49;15.90;99.90
31747;DHT22;18319;48.974;8.462;2023-07-20T03:34:16;15.80;99.90
31747;DHT22;18319;48.974;8.462;2023-07-20T03:36:42;15.80;99.90
31747;DHT22;18319;48.974;8.462;2023-07-20T03:39:09;15.80;99.90
31747;DHT22;18319;48.974;8.462;2023-07-20T03:41:36;15.80;99.90
31747;DHT22;18319;48.974;8.462;2023-07-20T03:44:03;15.80;99.90
31747;DHT22;18319;48.974;8.462;2023-07-20T03:46:30;15.80;99.90
31747;DHT22;18319;48.974;8.462;2023-07-20T03:49:00;15.80;99.90
31747;DHT22;18319;48.974;8.462;2023-07-20T03:51:27;15.80;99.90
31747;DHT22;18319;48.974;8.462;2023-07-20T03:53:54;15.80;99.90
31747;DHT22;18319;48.974;8.462;2023-07-20T03:56:21;15.80;99.90
31747;DHT22;18319;48.974;8.462;2023-07-20T03:58:48;15.90;99.90
31747;DHT22;18319;48.974;8.462;2023-07-20T04:01:15;15.90;99.90
31747;DHT22;18319;48.974;8.462;2023-07-20T04:03:42;16.00;99.90
31747;DHT22;18319;48.974;8.462;2023-07-20T04:06:10;16.10;99.90
31747;DHT22;18319;48.974;8.462;2023-07-20T04:08:37;16.20;99.90
31747;DHT22;18319;48.974;8.462;2023-07-20T04:13:34;16.40;99.90
31747;DHT22;18319;48.974;8.462;2023-07-20T04:16:01;16.50;99.90
31747;DHT22;18319;48.974;8.462;2023-07-20T04:18:28;16.50;99.90
31747;DHT22;18319;48.974;8.462;2023-07-20T04:20:54;16.50;99.90
31747;DHT22;18319;48.974;8.462;2023-07-20T04:23:22;16.50;99.90
31747;DHT22;18319;48.974;8.462;2023-07-20T04:25:49;16.50;99.90
31747;DHT22;18319;48.974;8.462;2023-07-20T04:28:16;16.50;99.90
31747;DHT22;18319;48.974;8.462;2023-07-20T04:30:43;16.50;99.90
31747;DHT22;18319;48.974;8.462;2023-07-20T04:33:09;16.40;99.90
31747;DHT22;18319;48.974;8.462;2023-07-20T04:35:49;16.40;99.90
31747;DHT22;18319;48.974;8.462;2023-07-20T04:38:16;16.40;99.90
31747;DHT22;18319;48.974;8.462;2023-07-20T04:40:46;16.50;99.90
31747;DHT22;18319;48.974;8.462;2023-07-20T04:43:13;16.60;99.90
31747;DHT22;18319;48.974;8.462;2023-07-20T04:45:40;16.70;99.90
31747;DHT22;18319;48.974;8.462;2023-07-20T04:48:10;16.80;99.90
31747;DHT22;18319;48.974;8.462;2023-07-20T04:50:37;16.90;99.90
31747;DHT22;18319;48.974;8.462;2023-07-20T04:53:03;17.00;99.90
31747;DHT22;18319;48.974;8.462;2023-07-20T04:55:30;17.10;99.90
31747;DHT22;18319;48.974;8.462;2023-07-20T04:58:00;17.20;99.90
31747;DHT22;18319;48.974;8.462;2023-07-20T05:00:27;17.20;99.90
31747;DHT22;18319;48.974;8.462;2023-07-20T05:02:54;17.10;99.90
31747;DHT22;18319;48.974;8.462;2023-07-20T05:05:20;17.10;99.90
31747;DHT22;18319;48.974;8.462;2023-07-20T05:07:47;17.30;99.90
31747;DHT22;18319;48.974;8.462;2023-07-20T05:10:14;17.30;99.90
31747;DHT22;18319;48.974;8.462;2023-07-20T05:12:41;17.30;99.90
31747;DHT22;18319;48.974;8.462;2023-07-20T05:15:10;17.20;99.90
31747;DHT22;18319;48.974;8.462;2023-07-20T05:17:36;17.20;99.90
31747;DHT22;18319;48.974;8.462;2023-07-20T05:20:05;17.20;99.90
31747;DHT22;18319;48.974;8.462;2023-07-20T05:22:34;17.30;99.90
31747;DHT22;18319;48.974;8.462;2023-07-20T05:25:01;17.40;99.90
31747;DHT22;18319;48.974;8.462;2023-07-20T05:27:28;17.50;99.90
31747;DHT22;18319;48.974;8.462;2023-07-20T05:29:55;17.70;99.90
31747;DHT22;18319;48.974;8.462;2023-07-20T05:32:23;17.80;99.90
31747;DHT22;18319;48.974;8.462;2023-07-20T05:34:52;18.00;99.90
31747;DHT22;18319;48.974;8.462;2023-07-20T05:37:19;18.00;99.90
31747;DHT22;18319;48.974;8.462;2023-07-20T05:39:46;18.30;99.90
31747;DHT22;18319;48.974;8.462;2023-07-20T05:42:13;18.50;99.90
31747;DHT22;18319;48.974;8.462;2023-07-20T05:44:40;18.60;99.90
31747;DHT22;18319;48.974;8.462;2023-07-20T05:47:07;18.70;99.90
31747;DHT22;18319;48.974;8.462;2023-07-20T05:49:35;18.90;99.90
31747;DHT22;18319;48.974;8.462;2023-07-20T05:52:02;19.10;99.90
31747;DHT22;18319;48.974;8.462;2023-07-20T05:54:29;19.10;99.90
31747;DHT22;18319;48.974;8.462;2023-07-20T05:56:56;19.30;99.90
31747;DHT22;18319;48.974;8.462;2023-07-20T05:59:24;19.20;99.90
31747;DHT22;18319;48.974;8.462;2023-07-20T06:01:50;19.40;99.90
31747;DHT22;18319;48.974;8.462;2023-07-20T06:04:17;19.80;99.90
31747;DHT22;18319;48.974;8.462;2023-07-20T06:06:45;20.00;99.90
31747;DHT22;18319;48.974;8.462;2023-07-20T06:09:13;20.10;99.90
31747;DHT22;18319;48.974;8.462;2023-07-20T06:11:40;20.10;99.90
31747;DHT22;18319;48.974;8.462;2023-07-20T06:14:07;20.00;99.90
31747;DHT22;18319;48.974;8.462;2023-07-20T06:16:34;20.10;99.90
31747;DHT22;18319;48.974;8.462;2023-07-20T06:19:00;20.40;99.90
31747;DHT22;18319;48.974;8.462;2023-07-20T06:21:27;20.10;99.90
31747;DHT22;18319;48.974;8.462;2023-07-20T06:23:55;20.00;99.90
31747;DHT22;18319;48.974;8.462;2023-07-20T06:26:22;20.00;99.90
31747;DHT22;18319;48.974;8.462;2023-07-20T06:28:49;20.30;99.90
31747;DHT22;18319;48.974;8.462;2023-07-20T06:31:17;20.60;99.90
31747;DHT22;18319;48.974;8.462;2023-07-20T06:33:43;20.60;99.90
31747;DHT22;18319;48.974;8.462;2023-07-20T06:36:10;20.70;99.90
31747;DHT22;18319;48.974;8.462;2023-07-20T06:38:39;20.80;99.90
31747;DHT22;18319;48.974;8.462;2023-07-20T06:41:27;20.70;99.90
31747;DHT22;18319;48.974;8.462;2023-07-20T06:43:57;21.00;99.90
31747;DHT22;18319;48.974;8.462;2023-07-20T06:46:25;21.00;99.90
31747;DHT22;18319;48.974;8.462;2023-07-20T06:48:52;20.90;99.90
31747;DHT22;18319;48.974;8.462;2023-07-20T06:51:20;20.80;99.90
31747;DHT22;18319;48.974;8.462;2023-07-20T06:53:47;21.20;99.90
31747;DHT22;18319;48.974;8.462;2023-07-20T06:56:14;21.20;99.90
31747;DHT22;18319;48.974;8.462;2023-07-20T06:58:42;21.10;99.90
31747;DHT22;18319;48.974;8.462;2023-07-20T07:01:09;20.70;99.90
31747;DHT22;18319;48.974;8.462;2023-07-20T07:03:35;20.60;99.90
31747;DHT22;18319;48.974;8.462;2023-07-20T07:06:03;20.70;99.90
31747;DHT22;18319;48.974;8.462;2023-07-20T07:08:30;21.00;99.90
31747;DHT22;18319;48.974;8.462;2023-07-20T07:10:56;21.30;99.90
31747;DHT22;18319;48.974;8.462;2023-07-20T07:13:23;21.40;99.90
31747;DHT22;18319;48.974;8.462;2023-07-20T07:15:52;21.40;99.90
31747;DHT22;18319;48.974;8.462;2023-07-20T07:18:18;21.40;99.90
31747;DHT22;18319;48.974;8.462;2023-07-20T07:20:51;21.30;99.90
31747;DHT22;18319;48.974;8.462;2023-07-20T07:23:17;21.30;99.90
31747;DHT22;18319;48.974;8.462;2023-07-20T07:25:45;21.50;99.90
31747;DHT22;18319;48.974;8.462;2023-07-20T07:28:11;21.80;99.90
31747;DHT22;18319;48.974;8.462;2023-07-20T07:30:38;22.00;99.90
31747;DHT22;18319;48.974;8.462;2023-07-20T07:33:06;22.20;99.90
31747;DHT22;18319;48.974;8.462;2023-07-20T07:35:34;22.20;99.90
31747;DHT22;18319;48.974;8.462;2023-07-20T07:38:00;22.00;99.90
31747;DHT22;18319;48.974;8.462;2023-07-20T07:40:27;22.10;99.90
31747;DHT22;18319;48.974;8.462;2023-07-20T07:42:54;22.40;99.90
31747;DHT22;18319;48.974;8.462;2023-07-20T07:45:21;22.90;99.90
31747;DHT22;18319;48.974;8.462;2023-07-20T07:47:47;23.00;99.90
31747;DHT22;18319;48.974;8.462;2023-07-20T07:50:16;23.40;99.90
31747;DHT22;18319;48.974;8.462;2023-07-20T07:52:43;23.20;99.90
31747;DHT22;18319;48.974;8.462;2023-07-20T07:55:09;23.60;99.90
31747;DHT22;18319;48.974;8.462;2023-07-20T07:57:36;24.10;99.90
31747;DHT22;18319;48.974;8.462;2023-07-20T08:00:04;24.90;99.90
31747;DHT22;18319;48.974;8.462;2023-07-20T08:02:31;25.10;99.90
31747;DHT22;18319;48.974;8.462;2023-07-20T08:04:58;25.90;99.90
31747;DHT22;18319;48.974;8.462;2023-07-20T08:07:27;25.80;99.90
31747;DHT22;18319;48.974;8.462;2023-07-20T08:09:54;25.00;99.90
31747;DHT22;18319;48.974;8.462;2023-07-20T08:12:21;24.50;99.90
31747;DHT22;18319;48.974;8.462;2023-07-20T08:14:48;24.80;99.90
31747;DHT22;18319;48.974;8.462;2023-07-20T08:17:15;24.90;99.90
31747;DHT22;18319;48.974;8.462;2023-07-20T08:19:42;25.20;99.90
31747;DHT22;18319;48.974;8.462;2023-07-20T08:22:09;25.90;99.90
31747;DHT22;18319;48.974;8.462;2023-07-20T08:24:40;26.40;99.90
31747;DHT22;18319;48.974;8.462;2023-07-20T08:27:07;26.60;99.90
31747;DHT22;18319;48.974;8.462;2023-07-20T08:29:35;26.90;99.90
31747;DHT22;18319;48.974;8.462;2023-07-20T08:32:02;27.30;99.90
31747;DHT22;18319;48.974;8.462;2023-07-20T08:34:29;27.30;99.90
31747;DHT22;18319;48.974;8.462;2023-07-20T08:36:56;26.70;99.90
31747;DHT22;18319;48.974;8.462;2023-07-20T08:39:23;27.00;99.90
31747;DHT22;18319;48.974;8.462;2023-07-20T08:41:52;27.10;99.90
31747;DHT22;18319;48.974;8.462;2023-07-20T08:44:19;27.40;99.90
31747;DHT22;18319;48.974;8.462;2023-07-20T08:46:47;27.10;99.90
31747;DHT22;18319;48.974;8.462;2023-07-20T08:49:16;25.90;99.90
31747;DHT22;18319;48.974;8.462;2023-07-20T08:51:45;26.00;99.90
31747;DHT22;18319;48.974;8.462;2023-07-20T08:54:13;26.50;99.90
31747;DHT22;18319;48.974;8.462;2023-07-20T08:56:41;27.10;99.90
31747;DHT22;18319;48.974;8.462;2023-07-20T08:59:10;27.70;99.90
31747;DHT22;18319;48.974;8.462;2023-07-20T09:01:39;27.90;99.90
31747;DHT22;18319;48.974;8.462;2023-07-20T09:04:06;27.70;99.90
31747;DHT22;18319;48.974;8.462;2023-07-20T09:06:34;28.30;99.90
31747;DHT22;18319;48.974;8.462;2023-07-20T09:09:01;29.00;99.90
31747;DHT22;18319;48.974;8.462;2023-07-20T09:11:28;28.90;99.90
31747;DHT22;18319;48.974;8.462;2023-07-20T09:14:05;28.50;99.90
31747;DHT22;18319;48.974;8.462;2023-07-20T09:16:47;28.90;99.90
31747;DHT22;18319;48.974;8.462;2023-07-20T09:19:14;29.30;99.90
31747;DHT22;18319;48.974;8.462;2023-07-20T09:21:44;28.80;99.90
31747;DHT22;18319;48.974;8.462;2023-07-20T09:24:11;27.50;99.90
31747;DHT22;18319;48.974;8.462;2023-07-20T09:26:41;27.40;99.90
31747;DHT22;18319;48.974;8.462;2023-07-20T09:29:09;27.30;99.90
31747;DHT22;18319;48.974;8.462;2023-07-20T09:31:37;27.60;99.90
31747;DHT22;18319;48.974;8.462;2023-07-20T09:34:05;27.50;99.90
31747;DHT22;18319;48.974;8.462;2023-07-20T09:36:33;27.70;99.90
31747;DHT22;18319;48.974;8.462;2023-07-20T09:39:02;27.90;99.90
31747;DHT22;18319;48.974;8.462;2023-07-20T09:41:29;27.60;99.90
31747;DHT22;18319;48.974;8.462;2023-07-20T09:43:56;27.50;99.90
31747;DHT22;18319;48.974;8.462;2023-07-20T09:46:23;28.40;99.90
31747;DHT22;18319;48.974;8.462;2023-07-20T09:48:54;28.50;99.90
31747;DHT22;18319;48.974;8.462;2023-07-20T09:51:22;28.10;99.90
31747;DHT22;18319;48.974;8.462;2023-07-20T09:53:49;27.20;99.90
31747;DHT22;18319;48.974;8.462;2023-07-20T09:56:21;26.60;99.90
31747;DHT22;18319;48.974;8.462;2023-07-20T09:58:49;26.70;99.90
31747;DHT22;18319;48.974;8.462;2023-07-20T10:01:20;26.70;99.90
31747;DHT22;18319;48.974;8.462;2023-07-20T10:03:47;26.80;99.90
31747;DHT22;18319;48.974;8.462;2023-07-20T10:06:21;26.70;99.90
31747;DHT22;18319;48.974;8.462;2023-07-20T10:08:52;27.00;99.90
31747;DHT22;18319;48.974;8.462;2023-07-20T10:11:22;27.20;99.90
31747;DHT22;18319;48.974;8.462;2023-07-20T10:13:51;27.80;99.90
31747;DHT22;18319;48.974;8.462;2023-07-20T10:16:22;27.70;99.90
31747;DHT22;18319;48.974;8.462;2023-07-20T10:19:02;27.90;99.90
31747;DHT22;18319;48.974;8.462;2023-07-20T10:21:32;28.00;99.90
31747;DHT22;18319;48.974;8.462;2023-07-20T10:24:01;27.30;99.90
31747;DHT22;18319;48.974;8.462;2023-07-20T10:26:28;27.00;99.90
31747;DHT22;18319;48.974;8.462;2023-07-20T10:28:55;26.80;99.90
31747;DHT22;18319;48.974;8.462;2023-07-20T10:31:24;26.70;99.90
31747;DHT22;18319;48.974;8.462;2023-07-20T10:33:54;26.90;99.90
31747;DHT22;18319;48.974;8.462;2023-07-20T10:36:25;26.20;99.90
31747;DHT22;18319;48.974;8.462;2023-07-20T10:38:55;26.10;99.90
31747;DHT22;18319;48.974;8.462;2023-07-20T10:41:27;26.10;99.90
31747;DHT22;18319;48.974;8.462;2023-07-20T10:43:58;26.00;99.90
31747;DHT22;18319;48.974;8.462;2023-07-20T10:46:42;26.10;99.90
31747;DHT22;18319;48.974;8.462;2023-07-20T10:49:11;26.50;99.90
31747;DHT22;18319;48.974;8.462;2023-07-20T10:51:42;26.60;99.90
31747;DHT22;18319;48.974;8.462;2023-07-20T10:54:33;26.50;99.90
31747;DHT22;18319;48.974;8.462;2023-07-20T10:57:23;26.10;99.90
31747;DHT22;18319;48.974;8.462;2023-07-20T10:59:50;25.90;99.90
31747;DHT22;18319;48.974;8.462;2023-07-20T11:02:18;25.80;99.90
31747;DHT22;18319;48.974;8.462;2023-07-20T11:04:46;25.90;99.90
31747;DHT22;18319;48.974;8.462;2023-07-20T11:07:15;25.50;99.90
31747;DHT22;18319;48.974;8.462;2023-07-20T11:09:44;25.40;99.90
31747;DHT22;18319;48.974;8.462;2023-07-20T11:12:12;25.50;99.90
31747;DHT22;18319;48.974;8.462;2023-07-20T11:14:41;25.60;99.90
31747;DHT22;18319;48.974;8.462;2023-07-20T11:17:11;25.70;99.90
31747;DHT22;18319;48.974;8.462;2023-07-20T11:19:39;25.60;99.90
31747;DHT22;18319;48.974;8.462;2023-07-20T11:22:07;25.40;99.90
31747;DHT22;18319;48.974;8.462;2023-07-20T11:24:37;25.20;99.90
31747;DHT22;18319;48.974;8.462;2023-07-20T11:27:06;25.30;99.90
31747;DHT22;18319;48.974;8.462;2023-07-20T11:29:33;25.60;99.90
31747;DHT22;18319;48.974;8.462;2023-07-20T11:32:00;26.00;99.90
31747;DHT22;18319;48.974;8.462;2023-07-20T11:34:31;25.90;99.90
31747;DHT22;18319;48.974;8.462;2023-07-20T11:36:58;26.00;99.90
31747;DHT22;18319;48.974;8.462;2023-07-20T11:39:25;26.20;99.90
31747;DHT22;18319;48.974;8.462;2023-07-20T11:41:53;26.30;99.90
31747;DHT22;18319;48.974;8.462;2023-07-20T11:44:24;26.40;99.90
31747;DHT22;18319;48.974;8.462;2023-07-20T11:47:00;26.40;99.90
31747;DHT22;18319;48.974;8.462;2023-07-20T11:49:28;26.30;99.90
31747;DHT22;18319;48.974;8.462;2023-07-20T11:51:56;26.70;99.90
31747;DHT22;18319;48.974;8.462;2023-07-20T11:54:23;26.80;99.90
31747;DHT22;18319;48.974;8.462;2023-07-20T11:56:53;26.70;99.90
31747;DHT22;18319;48.974;8.462;2023-07-20T11:59:22;26.20;99.90
31747;DHT22;18319;48.974;8.462;2023-07-20T12:01:49;26.00;99.90
31747;DHT22;18319;48.974;8.462;2023-07-20T12:04:16;25.80;99.90
31747;DHT22;18319;48.974;8.462;2023-07-20T12:06:45;25.70;99.90
31747;DHT22;18319;48.974;8.462;2023-07-20T12:09:14;25.90;99.90
31747;DHT22;18319;48.974;8.462;2023-07-20T12:11:43;26.20;99.90
31747;DHT22;18319;48.974;8.462;2023-07-20T12:14:10;26.40;99.90
31747;DHT22;18319;48.974;8.462;2023-07-20T12:16:39;26.20;99.90
31747;DHT22;18319;48.974;8.462;2023-07-20T12:19:08;26.00;99.90
31747;DHT22;18319;48.974;8.462;2023-07-20T12:21:37;25.60;99.90
31747;DHT22;18319;48.974;8.462;2023-07-20T12:24:04;25.40;99.90
31747;DHT22;18319;48.974;8.462;2023-07-20T12:26:32;24.90;99.90
31747;DHT22;18319;48.974;8.462;2023-07-20T12:28:59;25.00;99.90
31747;DHT22;18319;48.974;8.462;2023-07-20T12:31:27;25.20;99.90
31747;DHT22;18319;48.974;8.462;2023-07-20T12:33:57;25.40;99.90
31747;DHT22;18319;48.974;8.462;2023-07-20T12:36:24;25.50;99.90
31747;DHT22;18319;48.974;8.462;2023-07-20T12:38:51;25.60;99.90
31747;DHT22;18319;48.974;8.462;2023-07-20T12:41:18;25.30;99.90
31747;DHT22;18319;48.974;8.462;2023-07-20T12:43:45;25.40;99.90
31747;DHT22;18319;48.974;8.462;2023-07-20T12:46:13;25.40;99.90
31747;DHT22;18319;48.974;8.462;2023-07-20T12:48:40;25.20;99.90
31747;DHT22;18319;48.974;8.462;2023-07-20T12:51:09;25.00;99.90
31747;DHT22;18319;48.974;8.462;2023-07-20T12:53:37;24.90;99.90
31747;DHT22;18319;48.974;8.462;2023-07-20T12:56:04;24.90;99.90
31747;DHT22;18319;48.974;8.462;2023-07-20T12:58:31;24.90;99.90
31747;DHT22;18319;48.974;8.462;2023-07-20T13:00:58;25.10;99.90
31747;DHT22;18319;48.974;8.462;2023-07-20T13:03:25;25.20;99.90
31747;DHT22;18319;48.974;8.462;2023-07-20T13:05:52;25.40;99.90
31747;DHT22;18319;48.974;8.462;2023-07-20T13:08:20;25.40;99.90
31747;DHT22;18319;48.974;8.462;2023-07-20T13:10:50;25.40;99.90
31747;DHT22;18319;48.974;8.462;2023-07-20T13:13:17;25.50;99.90
31747;DHT22;18319;48.974;8.462;2023-07-20T13:15:44;25.30;99.50
31747;DHT22;18319;48.974;8.462;2023-07-20T13:18:12;25.20;99.90
31747;DHT22;18319;48.974;8.462;2023-07-20T13:20:38;25.00;99.90
31747;DHT22;18319;48.974;8.462;2023-07-20T13:23:06;25.30;99.90
31747;DHT22;18319;48.974;8.462;2023-07-20T13:25:34;25.80;99.90
31747;DHT22;18319;48.974;8.462;2023-07-20T13:28:01;26.00;99.90
31747;DHT22;18319;48.974;8.462;2023-07-20T13:30:28;25.70;99.90
31747;DHT22;18319;48.974;8.462;2023-07-20T13:32:54;25.60;99.90
31747;DHT22;18319;48.974;8.462;2023-07-20T13:35:21;25.70;99.90
31747;DHT22;18319;48.974;8.462;2023-07-20T13:37:48;25.40;99.90
31747;DHT22;18319;48.974;8.462;2023-07-20T13:40:15;25.30;99.90
31747;DHT22;18319;48.974;8.462;2023-07-20T13:42:45;25.40;99.90
31747;DHT22;18319;48.974;8.462;2023-07-20T13:45:12;25.40;99.90
31747;DHT22;18319;48.974;8.462;2023-07-20T13:47:38;25.30;99.90
31747;DHT22;18319;48.974;8.462;2023-07-20T13:50:06;25.40;99.90
31747;DHT22;18319;48.974;8.462;2023-07-20T13:52:33;25.40;99.90
31747;DHT22;18319;48.974;8.462;2023-07-20T13:55:00;25.40;99.90
31747;DHT22;18319;48.974;8.462;2023-07-20T13:57:27;25.30;99.90
31747;DHT22;18319;48.974;8.462;2023-07-20T13:59:55;25.30;99.90
31747;DHT22;18319;48.974;8.462;2023-07-20T14:02:22;25.30;99.90
31747;DHT22;18319;48.974;8.462;2023-07-20T14:04:48;25.30;99.90
31747;DHT22;18319;48.974;8.462;2023-07-20T14:07:15;25.20;99.90
31747;DHT22;18319;48.974;8.462;2023-07-20T14:09:42;25.20;99.90
31747;DHT22;18319;48.974;8.462;2023-07-20T14:12:09;25.30;99.90
31747;DHT22;18319;48.974;8.462;2023-07-20T14:14:37;25.30;99.90
31747;DHT22;18319;48.974;8.462;2023-07-20T14:17:05;25.40;99.90
31747;DHT22;18319;48.974;8.462;2023-07-20T14:19:32;25.30;99.90
31747;DHT22;18319;48.974;8.462;2023-07-20T14:21:59;25.30;99.90
31747;DHT22;18319;48.974;8.462;2023-07-20T14:24:26;25.20;99.90
31747;DHT22;18319;48.974;8.462;2023-07-20T14:26:53;25.10;96.30
31747;DHT22;18319;48.974;8.462;2023-07-20T14:29:20;25.00;99.20
31747;DHT22;18319;48.974;8.462;2023-07-20T14:31:46;24.90;94.70
31747;DHT22;18319;48.974;8.462;2023-07-20T14:34:17;24.90;97.10
31747;DHT22;18319;48.974;8.462;2023-07-20T14:36:44;25.20;98.30
31747;DHT22;18319;48.974;8.462;2023-07-20T14:39:11;25.20;99.90
31747;DHT22;18319;48.974;8.462;2023-07-20T14:41:38;25.20;99.90
31747;DHT22;18319;48.974;8.462;2023-07-20T14:44:04;25.20;99.90
31747;DHT22;18319;48.974;8.462;2023-07-20T14:46:31;25.20;99.90
31747;DHT22;18319;48.974;8.462;2023-07-20T14:48:58;25.20;99.90
31747;DHT22;18319;48.974;8.462;2023-07-20T14:51:26;25.20;99.90
31747;DHT22;18319;48.974;8.462;2023-07-20T14:53:57;25.20;99.90
31747;DHT22;18319;48.974;8.462;2023-07-20T14:56:23;25.10;99.90
31747;DHT22;18319;48.974;8.462;2023-07-20T14:58:50;25.10;99.90
31747;DHT22;18319;48.974;8.462;2023-07-20T15:01:17;25.30;99.90
31747;DHT22;18319;48.974;8.462;2023-07-20T15:03:44;25.40;99.90
31747;DHT22;18319;48.974;8.462;2023-07-20T15:06:11;25.30;99.90
31747;DHT22;18319;48.974;8.462;2023-07-20T15:08:39;25.30;99.90
31747;DHT22;18319;48.974;8.462;2023-07-20T15:11:06;25.00;99.90
31747;DHT22;18319;48.974;8.462;2023-07-20T15:13:33;25.00;98.80
31747;DHT22;18319;48.974;8.462;2023-07-20T15:15:59;25.10;95.30
31747;DHT22;18319;48.974;8.462;2023-07-20T15:18:26;25.20;97.00
31747;DHT22;18319;48.974;8.462;2023-07-20T15:20:53;25.20;95.60
31747;DHT22;18319;48.974;8.462;2023-07-20T15:23:20;25.20;95.80
31747;DHT22;18319;48.974;8.462;2023-07-20T15:25:48;25.10;99.70
31747;DHT22;18319;48.974;8.462;2023-07-20T15:28:14;25.00;99.90
31747;DHT22;18319;48.974;8.462;2023-07-20T15:30:41;25.00;99.90
31747;DHT22;18319;48.974;8.462;2023-07-20T15:33:08;24.90;98.50
31747;DHT22;18319;48.974;8.462;2023-07-20T15:35:35;24.90;99.90
31747;DHT22;18319;48.974;8.462;2023-07-20T15:38:02;24.80;99.90